sensor_id;sensor_type;location;lat;lon;timestamp;P1;durP1;ratioP1;P2;durP2;ratioP2
52940;SDS011;62001;53.366;6.636;2022-09-01T00:01:22;1.13;;;0.93;;
52940;SDS011;62001;53.366;6.636;2022-09-01T00:03:51;1.17;;;0.90;;
52940;SDS011;62001;53.366;6.636;2022-09-01T00:06:23;1.30;;;0.80;;
52940;SDS011;62001;53.366;6.636;2022-09-01T00:08:53;6.28;;;1.00;;
52940;SDS011;62001;53.366;6.636;2022-09-01T00:11:21;2.33;;;0.88;;
52940;SDS011;62001;53.366;6.636;2022-09-01T00:13:50;2.72;;;1.00;;
52940;SDS011;62001;53.366;6.636;2022-09-01T00:16:17;2.20;;;0.90;;
52940;SDS011;62001;53.366;6.636;2022-09-01T00:18:45;4.90;;;0.90;;
52940;SDS011;62001;53.366;6.636;2022-09-01T00:21:14;4.97;;;0.80;;
52940;SDS011;62001;53.366;6.636;2022-09-01T00:23:42;2.75;;;0.80;;
52940;SDS011;62001;53.366;6.636;2022-09-01T00:26:08;0.80;;;0.80;;
52940;SDS011;62001;53.366;6.636;2022-09-01T00:28:34;1.35;;;0.90;;
52940;SDS011;62001;53.366;6.636;2022-09-01T00:31:02;1.00;;;0.70;;
52940;SDS011;62001;53.366;6.636;2022-09-01T00:33:31;2.17;;;0.90;;
52940;SDS011;62001;53.366;6.636;2022-09-01T00:35:58;1.42;;;0.90;;
52940;SDS011;62001;53.366;6.636;2022-09-01T00:40:53;1.10;;;0.90;;
52940;SDS011;62001;53.366;6.636;2022-09-01T00:45:59;1.20;;;0.80;;
52940;SDS011;62001;53.366;6.636;2022-09-01T00:48:25;2.13;;;0.93;;
52940;SDS011;62001;53.366;6.636;2022-09-01T00:50:51;2.97;;;0.88;;
52940;SDS011;62001;53.366;6.636;2022-09-01T00:53:17;2.00;;;0.90;;
52940;SDS011;62001;53.366;6.636;2022-09-01T00:55:43;0.82;;;0.80;;
52940;SDS011;62001;53.366;6.636;2022-09-01T00:58:09;1.30;;;0.70;;
52940;SDS011;62001;53.366;6.636;2022-09-01T01:00:36;1.63;;;0.90;;
52940;SDS011;62001;53.366;6.636;2022-09-01T01:03:08;1.63;;;0.70;;
52940;SDS011;62001;53.366;6.636;2022-09-01T01:05:36;0.75;;;0.75;;
52940;SDS011;62001;53.366;6.636;2022-09-01T01:08:05;2.05;;;0.90;;
52940;SDS011;62001;53.366;6.636;2022-09-01T01:10:33;1.00;;;0.90;;
52940;SDS011;62001;53.366;6.636;2022-09-01T01:13:10;2.10;;;0.80;;
52940;SDS011;62001;53.366;6.636;2022-09-01T01:15:38;1.20;;;0.93;;
52940;SDS011;62001;53.366;6.636;2022-09-01T01:18:09;1.33;;;0.90;;
52940;SDS011;62001;53.366;6.636;2022-09-01T01:20:39;1.27;;;0.80;;
52940;SDS011;62001;53.366;6.636;2022-09-01T01:23:42;2.22;;;1.00;;
52940;SDS011;62001;53.366;6.636;2022-09-01T01:26:15;1.30;;;0.70;;
52940;SDS011;62001;53.366;6.636;2022-09-01T01:28:41;1.23;;;0.90;;
52940;SDS011;62001;53.366;6.636;2022-09-01T01:31:09;2.85;;;0.80;;
52940;SDS011;62001;53.366;6.636;2022-09-01T01:33:46;1.90;;;0.70;;
52940;SDS011;62001;53.366;6.636;2022-09-01T01:36:25;1.35;;;0.90;;
52940;SDS011;62001;53.366;6.636;2022-09-01T01:38:58;1.88;;;0.90;;
52940;SDS011;62001;53.366;6.636;2022-09-01T01:41:28;1.77;;;0.90;;
52940;SDS011;62001;53.366;6.636;2022-09-01T01:43:57;1.25;;;0.88;;
52940;SDS011;62001;53.366;6.636;2022-09-01T01:46:25;1.05;;;0.80;;
52940;SDS011;62001;53.366;6.636;2022-09-01T01:48:51;3.17;;;0.93;;
52940;SDS011;62001;53.366;6.636;2022-09-01T01:51:18;0.85;;;0.82;;
52940;SDS011;62001;53.366;6.636;2022-09-01T01:53:45;4.70;;;1.00;;
52940;SDS011;62001;53.366;6.636;2022-09-01T01:56:12;3.88;;;1.00;;
52940;SDS011;62001;53.366;6.636;2022-09-01T01:58:38;2.03;;;1.08;;
52940;SDS011;62001;53.366;6.636;2022-09-01T02:01:05;3.50;;;0.85;;
52940;SDS011;62001;53.366;6.636;2022-09-01T02:06:03;1.58;;;0.90;;
52940;SDS011;62001;53.366;6.636;2022-09-01T02:08:34;1.42;;;0.90;;
52940;SDS011;62001;53.366;6.636;2022-09-01T02:11:02;2.20;;;0.82;;
52940;SDS011;62001;53.366;6.636;2022-09-01T02:13:29;1.58;;;1.10;;
52940;SDS011;62001;53.366;6.636;2022-09-01T02:15:56;1.60;;;1.17;;
52940;SDS011;62001;53.366;6.636;2022-09-01T02:18:26;1.40;;;1.30;;
52940;SDS011;62001;53.366;6.636;2022-09-01T02:21:06;1.92;;;1.25;;
52940;SDS011;62001;53.366;6.636;2022-09-01T02:23:36;1.70;;;1.25;;
52940;SDS011;62001;53.366;6.636;2022-09-01T02:26:03;2.75;;;1.50;;
52940;SDS011;62001;53.366;6.636;2022-09-01T02:28:31;1.40;;;1.20;;
52940;SDS011;62001;53.366;6.636;2022-09-01T02:31:01;1.73;;;1.30;;
52940;SDS011;62001;53.366;6.636;2022-09-01T02:33:29;1.73;;;1.23;;
52940;SDS011;62001;53.366;6.636;2022-09-01T02:35:57;1.75;;;1.30;;
52940;SDS011;62001;53.366;6.636;2022-09-01T02:38:25;2.65;;;1.30;;
52940;SDS011;62001;53.366;6.636;2022-09-01T02:40:54;3.72;;;1.50;;
52940;SDS011;62001;53.366;6.636;2022-09-01T02:43:22;1.85;;;1.25;;
52940;SDS011;62001;53.366;6.636;2022-09-01T02:45:53;3.30;;;1.40;;
52940;SDS011;62001;53.366;6.636;2022-09-01T02:48:27;2.08;;;1.40;;
52940;SDS011;62001;53.366;6.636;2022-09-01T02:51:00;2.95;;;1.50;;
52940;SDS011;62001;53.366;6.636;2022-09-01T02:53:29;2.95;;;1.50;;
52940;SDS011;62001;53.366;6.636;2022-09-01T02:55:55;3.88;;;1.60;;
52940;SDS011;62001;53.366;6.636;2022-09-01T02:58:22;3.10;;;1.20;;
52940;SDS011;62001;53.366;6.636;2022-09-01T03:00:51;1.50;;;1.40;;
52940;SDS011;62001;53.366;6.636;2022-09-01T03:05:45;3.22;;;1.70;;
52940;SDS011;62001;53.366;6.636;2022-09-01T03:08:12;1.65;;;1.50;;
52940;SDS011;62001;53.366;6.636;2022-09-01T03:10:41;1.50;;;1.40;;
52940;SDS011;62001;53.366;6.636;2022-09-01T03:13:09;3.35;;;1.40;;
52940;SDS011;62001;53.366;6.636;2022-09-01T03:15:38;2.30;;;1.30;;
52940;SDS011;62001;53.366;6.636;2022-09-01T03:18:04;2.40;;;1.25;;
52940;SDS011;62001;53.366;6.636;2022-09-01T03:20:32;1.95;;;1.30;;
52940;SDS011;62001;53.366;6.636;2022-09-01T03:23:00;2.10;;;1.50;;
52940;SDS011;62001;53.366;6.636;2022-09-01T03:25:32;2.08;;;1.40;;
52940;SDS011;62001;53.366;6.636;2022-09-01T03:27:59;3.22;;;1.30;;
52940;SDS011;62001;53.366;6.636;2022-09-01T03:30:31;5.57;;;1.40;;
52940;SDS011;62001;53.366;6.636;2022-09-01T03:32:59;2.03;;;1.33;;
52940;SDS011;62001;53.366;6.636;2022-09-01T03:35:28;1.48;;;1.38;;
52940;SDS011;62001;53.366;6.636;2022-09-01T03:37:56;2.35;;;1.55;;
52940;SDS011;62001;53.366;6.636;2022-09-01T03:40:27;2.10;;;1.40;;
52940;SDS011;62001;53.366;6.636;2022-09-01T03:43:00;2.42;;;1.30;;
52940;SDS011;62001;53.366;6.636;2022-09-01T03:45:27;1.60;;;1.15;;
52940;SDS011;62001;53.366;6.636;2022-09-01T03:47:54;1.10;;;0.98;;
52940;SDS011;62001;53.366;6.636;2022-09-01T03:50:21;1.92;;;0.93;;
52940;SDS011;62001;53.366;6.636;2022-09-01T03:52:55;2.38;;;1.30;;
52940;SDS011;62001;53.366;6.636;2022-09-01T03:55:24;2.25;;;1.30;;
52940;SDS011;62001;53.366;6.636;2022-09-01T03:57:55;1.60;;;1.50;;
52940;SDS011;62001;53.366;6.636;2022-09-01T04:00:25;3.88;;;1.40;;
52940;SDS011;62001;53.366;6.636;2022-09-01T04:02:54;3.03;;;1.40;;
52940;SDS011;62001;53.366;6.636;2022-09-01T04:05:23;4.20;;;1.48;;
52940;SDS011;62001;53.366;6.636;2022-09-01T04:10:22;4.20;;;1.70;;
52940;SDS011;62001;53.366;6.636;2022-09-01T04:12:48;2.70;;;1.55;;
52940;SDS011;62001;53.366;6.636;2022-09-01T04:15:14;2.83;;;1.63;;
52940;SDS011;62001;53.366;6.636;2022-09-01T04:17:44;4.15;;;1.60;;
52940;SDS011;62001;53.366;6.636;2022-09-01T04:20:34;3.28;;;1.60;;
52940;SDS011;62001;53.366;6.636;2022-09-01T04:23:14;3.05;;;1.45;;
52940;SDS011;62001;53.366;6.636;2022-09-01T04:25:45;3.63;;;1.50;;
52940;SDS011;62001;53.366;6.636;2022-09-01T04:28:14;2.53;;;1.63;;
52940;SDS011;62001;53.366;6.636;2022-09-01T04:30:56;5.63;;;1.70;;
52940;SDS011;62001;53.366;6.636;2022-09-01T04:33:23;1.70;;;1.45;;
52940;SDS011;62001;53.366;6.636;2022-09-01T04:35:51;5.32;;;1.80;;
52940;SDS011;62001;53.366;6.636;2022-09-01T04:38:21;4.57;;;2.30;;
52940;SDS011;62001;53.366;6.636;2022-09-01T04:40:49;3.50;;;2.00;;
52940;SDS011;62001;53.366;6.636;2022-09-01T04:43:15;1.88;;;1.70;;
52940;SDS011;62001;53.366;6.636;2022-09-01T04:45:41;2.30;;;2.10;;
52940;SDS011;62001;53.366;6.636;2022-09-01T04:48:07;4.03;;;2.03;;
52940;SDS011;62001;53.366;6.636;2022-09-01T04:50:33;3.85;;;2.28;;
52940;SDS011;62001;53.366;6.636;2022-09-01T04:53:02;2.20;;;2.00;;
52940;SDS011;62001;53.366;6.636;2022-09-01T04:55:30;2.55;;;1.98;;
52940;SDS011;62001;53.366;6.636;2022-09-01T04:57:57;4.07;;;2.20;;
52940;SDS011;62001;53.366;6.636;2022-09-01T05:00:25;3.97;;;2.20;;
52940;SDS011;62001;53.366;6.636;2022-09-01T05:02:57;2.42;;;2.22;;
52940;SDS011;62001;53.366;6.636;2022-09-01T05:05:34;5.55;;;2.25;;
52940;SDS011;62001;53.366;6.636;2022-09-01T05:08:10;2.58;;;2.28;;
52940;SDS011;62001;53.366;6.636;2022-09-01T05:10:44;4.47;;;2.20;;
52940;SDS011;62001;53.366;6.636;2022-09-01T05:13:13;4.13;;;2.22;;
52940;SDS011;62001;53.366;6.636;2022-09-01T05:18:18;2.42;;;2.20;;
52940;SDS011;62001;53.366;6.636;2022-09-01T05:20:51;3.70;;;2.03;;
52940;SDS011;62001;53.366;6.636;2022-09-01T05:23:17;3.05;;;2.22;;
52940;SDS011;62001;53.366;6.636;2022-09-01T05:25:45;2.17;;;1.95;;
52940;SDS011;62001;53.366;6.636;2022-09-01T05:28:17;2.90;;;2.13;;
52940;SDS011;62001;53.366;6.636;2022-09-01T05:30:44;2.55;;;2.03;;
52940;SDS011;62001;53.366;6.636;2022-09-01T05:33:13;4.35;;;2.13;;
52940;SDS011;62001;53.366;6.636;2022-09-01T05:35:42;2.38;;;2.17;;
52940;SDS011;62001;53.366;6.636;2022-09-01T05:38:21;3.85;;;2.45;;
52940;SDS011;62001;53.366;6.636;2022-09-01T05:40:59;2.65;;;2.20;;
52940;SDS011;62001;53.366;6.636;2022-09-01T05:43:28;3.03;;;2.15;;
52940;SDS011;62001;53.366;6.636;2022-09-01T05:45:56;2.63;;;2.40;;
52940;SDS011;62001;53.366;6.636;2022-09-01T05:48:22;4.50;;;2.33;;
52940;SDS011;62001;53.366;6.636;2022-09-01T05:50:49;4.07;;;2.40;;
52940;SDS011;62001;53.366;6.636;2022-09-01T05:53:16;4.60;;;2.20;;
52940;SDS011;62001;53.366;6.636;2022-09-01T05:55:46;2.33;;;2.00;;
52940;SDS011;62001;53.366;6.636;2022-09-01T05:58:13;3.20;;;2.22;;
52940;SDS011;62001;53.366;6.636;2022-09-01T06:00:42;3.60;;;2.10;;
52940;SDS011;62001;53.366;6.636;2022-09-01T06:03:11;2.30;;;1.85;;
52940;SDS011;62001;53.366;6.636;2022-09-01T06:05:39;2.85;;;2.08;;
52940;SDS011;62001;53.366;6.636;2022-09-01T06:08:05;4.80;;;2.30;;
52940;SDS011;62001;53.366;6.636;2022-09-01T06:10:37;4.15;;;2.05;;
52940;SDS011;62001;53.366;6.636;2022-09-01T06:13:05;5.03;;;2.28;;
52940;SDS011;62001;53.366;6.636;2022-09-01T06:15:31;3.05;;;2.15;;
52940;SDS011;62001;53.366;6.636;2022-09-01T06:17:58;5.38;;;1.88;;
52940;SDS011;62001;53.366;6.636;2022-09-01T06:20:25;3.28;;;2.00;;
52940;SDS011;62001;53.366;6.636;2022-09-01T06:22:51;3.40;;;2.00;;
52940;SDS011;62001;53.366;6.636;2022-09-01T06:25:20;2.75;;;1.83;;
52940;SDS011;62001;53.366;6.636;2022-09-01T06:27:47;5.00;;;2.00;;
52940;SDS011;62001;53.366;6.636;2022-09-01T06:30:14;2.70;;;2.10;;
52940;SDS011;62001;53.366;6.636;2022-09-01T06:32:49;6.80;;;2.03;;
52940;SDS011;62001;53.366;6.636;2022-09-01T06:35:16;2.13;;;1.88;;
52940;SDS011;62001;53.366;6.636;2022-09-01T06:37:42;2.80;;;1.52;;
52940;SDS011;62001;53.366;6.636;2022-09-01T06:40:10;1.50;;;1.40;;
52940;SDS011;62001;53.366;6.636;2022-09-01T06:42:47;2.63;;;1.35;;
52940;SDS011;62001;53.366;6.636;2022-09-01T06:45:16;3.22;;;1.42;;
52940;SDS011;62001;53.366;6.636;2022-09-01T06:47:46;2.90;;;1.40;;
52940;SDS011;62001;53.366;6.636;2022-09-01T06:50:16;1.35;;;1.10;;
52940;SDS011;62001;53.366;6.636;2022-09-01T06:52:46;2.80;;;1.08;;
52940;SDS011;62001;53.366;6.636;2022-09-01T06:55:28;1.70;;;1.20;;
52940;SDS011;62001;53.366;6.636;2022-09-01T06:57:57;4.13;;;1.10;;
52940;SDS011;62001;53.366;6.636;2022-09-01T07:00:23;1.80;;;1.10;;
52940;SDS011;62001;53.366;6.636;2022-09-01T07:02:54;2.95;;;1.15;;
52940;SDS011;62001;53.366;6.636;2022-09-01T07:05:21;1.17;;;1.08;;
52940;SDS011;62001;53.366;6.636;2022-09-01T07:07:49;2.63;;;1.20;;
52940;SDS011;62001;53.366;6.636;2022-09-01T07:10:23;2.97;;;1.10;;
52940;SDS011;62001;53.366;6.636;2022-09-01T07:12:54;4.03;;;1.20;;
52940;SDS011;62001;53.366;6.636;2022-09-01T07:15:22;2.38;;;1.13;;
52940;SDS011;62001;53.366;6.636;2022-09-01T07:17:50;2.63;;;1.25;;
52940;SDS011;62001;53.366;6.636;2022-09-01T07:20:18;5.00;;;1.08;;
52940;SDS011;62001;53.366;6.636;2022-09-01T07:22:47;3.65;;;1.10;;
52940;SDS011;62001;53.366;6.636;2022-09-01T07:25:13;2.35;;;1.27;;
52940;SDS011;62001;53.366;6.636;2022-09-01T07:27:41;2.97;;;1.52;;
52940;SDS011;62001;53.366;6.636;2022-09-01T07:30:15;3.80;;;1.42;;
52940;SDS011;62001;53.366;6.636;2022-09-01T07:32:43;2.17;;;1.52;;
52940;SDS011;62001;53.366;6.636;2022-09-01T07:35:13;2.10;;;1.45;;
52940;SDS011;62001;53.366;6.636;2022-09-01T07:37:41;5.72;;;1.70;;
52940;SDS011;62001;53.366;6.636;2022-09-01T07:40:08;3.28;;;1.50;;
52940;SDS011;62001;53.366;6.636;2022-09-01T07:42:36;1.75;;;1.30;;
52940;SDS011;62001;53.366;6.636;2022-09-01T07:45:06;7.47;;;1.63;;
52940;SDS011;62001;53.366;6.636;2022-09-01T07:47:33;8.18;;;1.75;;
52940;SDS011;62001;53.366;6.636;2022-09-01T07:50:02;5.40;;;1.55;;
52940;SDS011;62001;53.366;6.636;2022-09-01T07:52:32;4.95;;;1.45;;
52940;SDS011;62001;53.366;6.636;2022-09-01T07:55:04;4.47;;;1.70;;
52940;SDS011;62001;53.366;6.636;2022-09-01T07:57:32;2.50;;;1.50;;
52940;SDS011;62001;53.366;6.636;2022-09-01T07:59:58;2.63;;;1.40;;
52940;SDS011;62001;53.366;6.636;2022-09-01T08:02:24;2.92;;;1.40;;
52940;SDS011;62001;53.366;6.636;2022-09-01T08:04:52;3.30;;;1.20;;
52940;SDS011;62001;53.366;6.636;2022-09-01T08:07:18;1.80;;;1.05;;
52940;SDS011;62001;53.366;6.636;2022-09-01T08:09:44;3.88;;;1.52;;
52940;SDS011;62001;53.366;6.636;2022-09-01T08:12:10;2.90;;;1.10;;
52940;SDS011;62001;53.366;6.636;2022-09-01T08:14:36;2.42;;;1.25;;
52940;SDS011;62001;53.366;6.636;2022-09-01T08:17:02;2.42;;;1.35;;
52940;SDS011;62001;53.366;6.636;2022-09-01T08:19:28;2.75;;;1.10;;
52940;SDS011;62001;53.366;6.636;2022-09-01T08:21:55;1.63;;;1.27;;
52940;SDS011;62001;53.366;6.636;2022-09-01T08:24:20;3.83;;;1.15;;
52940;SDS011;62001;53.366;6.636;2022-09-01T08:26:46;3.75;;;1.30;;
52940;SDS011;62001;53.366;6.636;2022-09-01T08:29:12;1.75;;;1.40;;
52940;SDS011;62001;53.366;6.636;2022-09-01T08:31:38;3.08;;;1.50;;
52940;SDS011;62001;53.366;6.636;2022-09-01T08:34:03;2.30;;;1.40;;
52940;SDS011;62001;53.366;6.636;2022-09-01T08:36:29;2.97;;;1.20;;
52940;SDS011;62001;53.366;6.636;2022-09-01T08:38:56;1.65;;;1.35;;
52940;SDS011;62001;53.366;6.636;2022-09-01T08:47:05;4.55;;;1.20;;
52940;SDS011;62001;53.366;6.636;2022-09-01T08:49:33;2.05;;;1.30;;
52940;SDS011;62001;53.366;6.636;2022-09-01T08:54:45;1.85;;;1.20;;
52940;SDS011;62001;53.366;6.636;2022-09-01T08:57:16;2.05;;;1.08;;
52940;SDS011;62001;53.366;6.636;2022-09-01T08:59:42;2.22;;;0.80;;
52940;SDS011;62001;53.366;6.636;2022-09-01T09:05:02;1.27;;;0.82;;
52940;SDS011;62001;53.366;6.636;2022-09-01T09:10:16;1.60;;;1.10;;
52940;SDS011;62001;53.366;6.636;2022-09-01T09:18:18;3.15;;;1.00;;
52940;SDS011;62001;53.366;6.636;2022-09-01T09:20:53;2.42;;;0.90;;
52940;SDS011;62001;53.366;6.636;2022-09-01T09:23:23;1.08;;;0.70;;
52940;SDS011;62001;53.366;6.636;2022-09-01T09:25:53;1.67;;;0.93;;
52940;SDS011;62001;53.366;6.636;2022-09-01T09:28:20;1.05;;;0.65;;
52940;SDS011;62001;53.366;6.636;2022-09-01T09:30:45;1.85;;;0.80;;
52940;SDS011;62001;53.366;6.636;2022-09-01T09:33:31;2.13;;;0.80;;
52940;SDS011;62001;53.366;6.636;2022-09-01T09:36:16;1.58;;;0.63;;
52940;SDS011;62001;53.366;6.636;2022-09-01T09:38:44;1.10;;;0.95;;
52940;SDS011;62001;53.366;6.636;2022-09-01T09:41:15;1.23;;;0.68;;
52940;SDS011;62001;53.366;6.636;2022-09-01T09:43:45;3.40;;;0.85;;
52940;SDS011;62001;53.366;6.636;2022-09-01T09:46:20;1.10;;;0.82;;
52940;SDS011;62001;53.366;6.636;2022-09-01T09:51:37;0.98;;;0.88;;
52940;SDS011;62001;53.366;6.636;2022-09-01T09:54:12;2.88;;;1.15;;
52940;SDS011;62001;53.366;6.636;2022-09-01T09:56:42;2.55;;;1.10;;
52940;SDS011;62001;53.366;6.636;2022-09-01T09:59:20;4.55;;;1.35;;
52940;SDS011;62001;53.366;6.636;2022-09-01T10:01:47;3.20;;;1.02;;
52940;SDS011;62001;53.366;6.636;2022-09-01T10:04:30;2.33;;;1.15;;
52940;SDS011;62001;53.366;6.636;2022-09-01T10:06:59;3.95;;;1.27;;
52940;SDS011;62001;53.366;6.636;2022-09-01T10:11:53;1.48;;;0.95;;
52940;SDS011;62001;53.366;6.636;2022-09-01T10:14:27;2.22;;;1.02;;
52940;SDS011;62001;53.366;6.636;2022-09-01T10:17:16;2.85;;;0.90;;
52940;SDS011;62001;53.366;6.636;2022-09-01T10:19:58;2.80;;;1.02;;
52940;SDS011;62001;53.366;6.636;2022-09-01T10:22:29;2.05;;;0.90;;
52940;SDS011;62001;53.366;6.636;2022-09-01T10:24:56;2.28;;;0.90;;
52940;SDS011;62001;53.366;6.636;2022-09-01T10:27:26;1.42;;;0.90;;
52940;SDS011;62001;53.366;6.636;2022-09-01T10:32:32;2.70;;;0.93;;
52940;SDS011;62001;53.366;6.636;2022-09-01T10:35:23;1.42;;;0.93;;
52940;SDS011;62001;53.366;6.636;2022-09-01T10:37:58;4.10;;;0.95;;
52940;SDS011;62001;53.366;6.636;2022-09-01T10:40:49;1.30;;;0.80;;
52940;SDS011;62001;53.366;6.636;2022-09-01T10:44:06;1.77;;;0.82;;
52940;SDS011;62001;53.366;6.636;2022-09-01T10:48:58;1.70;;;0.80;;
52940;SDS011;62001;53.366;6.636;2022-09-01T10:53:50;1.20;;;0.88;;
52940;SDS011;62001;53.366;6.636;2022-09-01T10:56:35;3.70;;;0.90;;
52940;SDS011;62001;53.366;6.636;2022-09-01T11:06:57;4.95;;;1.00;;
52940;SDS011;62001;53.366;6.636;2022-09-01T11:09:33;3.25;;;0.80;;
52940;SDS011;62001;53.366;6.636;2022-09-01T11:12:17;1.35;;;0.80;;
52940;SDS011;62001;53.366;6.636;2022-09-01T11:15:00;1.63;;;0.70;;
52940;SDS011;62001;53.366;6.636;2022-09-01T11:17:35;1.30;;;0.70;;
52940;SDS011;62001;53.366;6.636;2022-09-01T11:20:28;0.70;;;0.70;;
52940;SDS011;62001;53.366;6.636;2022-09-01T11:36:27;3.00;;;0.80;;
52940;SDS011;62001;53.366;6.636;2022-09-01T11:44:13;1.80;;;0.85;;
52940;SDS011;62001;53.366;6.636;2022-09-01T11:46:54;5.18;;;0.80;;
52940;SDS011;62001;53.366;6.636;2022-09-01T11:49:38;2.80;;;0.90;;
52940;SDS011;62001;53.366;6.636;2022-09-01T11:52:14;1.38;;;0.60;;
52940;SDS011;62001;53.366;6.636;2022-09-01T11:54:42;1.50;;;0.95;;
52940;SDS011;62001;53.366;6.636;2022-09-01T11:59:51;3.08;;;0.90;;
52940;SDS011;62001;53.366;6.636;2022-09-01T12:03:00;2.35;;;0.80;;
52940;SDS011;62001;53.366;6.636;2022-09-01T12:08:11;3.35;;;1.00;;
52940;SDS011;62001;53.366;6.636;2022-09-01T12:10:39;1.17;;;0.77;;
52940;SDS011;62001;53.366;6.636;2022-09-01T12:13:18;1.63;;;0.70;;
52940;SDS011;62001;53.366;6.636;2022-09-01T12:15:53;0.82;;;0.70;;
52940;SDS011;62001;53.366;6.636;2022-09-01T12:18:25;1.27;;;0.80;;
52940;SDS011;62001;53.366;6.636;2022-09-01T12:20:53;2.17;;;0.88;;
52940;SDS011;62001;53.366;6.636;2022-09-01T12:23:23;1.10;;;0.77;;
52940;SDS011;62001;53.366;6.636;2022-09-01T12:26:00;0.68;;;0.68;;
52940;SDS011;62001;53.366;6.636;2022-09-01T12:28:37;3.53;;;0.70;;
52940;SDS011;62001;53.366;6.636;2022-09-01T12:31:15;4.10;;;1.10;;
52940;SDS011;62001;53.366;6.636;2022-09-01T12:33:50;1.38;;;0.88;;
52940;SDS011;62001;53.366;6.636;2022-09-01T12:38:53;2.65;;;0.70;;
52940;SDS011;62001;53.366;6.636;2022-09-01T12:41:34;1.58;;;0.73;;
52940;SDS011;62001;53.366;6.636;2022-09-01T12:47:08;0.80;;;0.70;;
52940;SDS011;62001;53.366;6.636;2022-09-01T12:57:32;1.20;;;0.80;;
52940;SDS011;62001;53.366;6.636;2022-09-01T13:00:20;0.90;;;0.70;;
52940;SDS011;62001;53.366;6.636;2022-09-01T13:02:48;1.88;;;0.50;;
52940;SDS011;62001;53.366;6.636;2022-09-01T13:07:42;2.58;;;0.60;;
52940;SDS011;62001;53.366;6.636;2022-09-01T13:10:08;2.47;;;0.75;;
52940;SDS011;62001;53.366;6.636;2022-09-01T13:12:37;1.23;;;0.65;;
52940;SDS011;62001;53.366;6.636;2022-09-01T13:15:06;0.95;;;0.60;;
52940;SDS011;62001;53.366;6.636;2022-09-01T13:17:33;0.88;;;0.60;;
52940;SDS011;62001;53.366;6.636;2022-09-01T13:19:59;3.10;;;0.82;;
52940;SDS011;62001;53.366;6.636;2022-09-01T13:22:24;2.67;;;0.63;;
52940;SDS011;62001;53.366;6.636;2022-09-01T13:24:50;1.67;;;0.80;;
52940;SDS011;62001;53.366;6.636;2022-09-01T13:27:16;1.48;;;0.80;;
52940;SDS011;62001;53.366;6.636;2022-09-01T13:29:42;4.88;;;0.88;;
52940;SDS011;62001;53.366;6.636;2022-09-01T13:32:08;0.88;;;0.68;;
52940;SDS011;62001;53.366;6.636;2022-09-01T13:34:34;1.77;;;0.60;;
52940;SDS011;62001;53.366;6.636;2022-09-01T13:37:00;0.73;;;0.60;;
52940;SDS011;62001;53.366;6.636;2022-09-01T13:39:25;1.20;;;0.70;;
52940;SDS011;62001;53.366;6.636;2022-09-01T13:41:52;1.27;;;0.60;;
52940;SDS011;62001;53.366;6.636;2022-09-01T13:44:19;2.53;;;0.80;;
52940;SDS011;62001;53.366;6.636;2022-09-01T13:46:45;0.90;;;0.68;;
52940;SDS011;62001;53.366;6.636;2022-09-01T13:49:11;1.85;;;0.70;;
52940;SDS011;62001;53.366;6.636;2022-09-01T13:51:37;1.65;;;0.68;;
52940;SDS011;62001;53.366;6.636;2022-09-01T13:54:03;2.35;;;0.70;;
52940;SDS011;62001;53.366;6.636;2022-09-01T13:56:29;0.80;;;0.60;;
52940;SDS011;62001;53.366;6.636;2022-09-01T13:58:54;3.25;;;0.80;;
52940;SDS011;62001;53.366;6.636;2022-09-01T14:01:20;1.85;;;0.70;;
52940;SDS011;62001;53.366;6.636;2022-09-01T14:03:47;1.60;;;0.82;;
52940;SDS011;62001;53.366;6.636;2022-09-01T14:06:14;2.05;;;0.80;;
52940;SDS011;62001;53.366;6.636;2022-09-01T14:08:40;1.52;;;0.75;;
52940;SDS011;62001;53.366;6.636;2022-09-01T14:11:06;1.27;;;0.80;;
52940;SDS011;62001;53.366;6.636;2022-09-01T14:13:33;1.52;;;0.70;;
52940;SDS011;62001;53.366;6.636;2022-09-01T14:15:59;0.60;;;0.52;;
52940;SDS011;62001;53.366;6.636;2022-09-01T14:18:25;1.00;;;0.73;;
52940;SDS011;62001;53.366;6.636;2022-09-01T14:20:57;1.85;;;0.70;;
52940;SDS011;62001;53.366;6.636;2022-09-01T14:23:25;3.28;;;0.88;;
52940;SDS011;62001;53.366;6.636;2022-09-01T14:25:51;1.25;;;0.60;;
52940;SDS011;62001;53.366;6.636;2022-09-01T14:28:18;1.20;;;0.80;;
52940;SDS011;62001;53.366;6.636;2022-09-01T14:30:46;3.47;;;0.70;;
52940;SDS011;62001;53.366;6.636;2022-09-01T14:33:13;2.00;;;1.00;;
52940;SDS011;62001;53.366;6.636;2022-09-01T14:35:41;1.45;;;0.82;;
52940;SDS011;62001;53.366;6.636;2022-09-01T14:38:09;0.85;;;0.70;;
52940;SDS011;62001;53.366;6.636;2022-09-01T14:40:37;0.90;;;0.90;;
52940;SDS011;62001;53.366;6.636;2022-09-01T14:43:05;2.30;;;0.60;;
52940;SDS011;62001;53.366;6.636;2022-09-01T14:45:34;1.48;;;0.70;;
52940;SDS011;62001;53.366;6.636;2022-09-01T14:48:02;1.52;;;0.70;;
52940;SDS011;62001;53.366;6.636;2022-09-01T14:50:28;2.10;;;0.80;;
52940;SDS011;62001;53.366;6.636;2022-09-01T14:52:57;1.98;;;0.70;;
52940;SDS011;62001;53.366;6.636;2022-09-01T14:55:26;3.10;;;0.97;;
52940;SDS011;62001;53.366;6.636;2022-09-01T14:57:53;2.67;;;0.55;;
52940;SDS011;62001;53.366;6.636;2022-09-01T15:00:20;1.23;;;0.60;;
52940;SDS011;62001;53.366;6.636;2022-09-01T15:02:46;2.13;;;0.80;;
52940;SDS011;62001;53.366;6.636;2022-09-01T15:05:13;1.02;;;0.80;;
52940;SDS011;62001;53.366;6.636;2022-09-01T15:07:40;2.33;;;0.63;;
52940;SDS011;62001;53.366;6.636;2022-09-01T15:10:07;1.70;;;1.00;;
52940;SDS011;62001;53.366;6.636;2022-09-01T15:12:35;2.40;;;0.80;;
52940;SDS011;62001;53.366;6.636;2022-09-01T15:15:04;0.90;;;0.70;;
52940;SDS011;62001;53.366;6.636;2022-09-01T15:17:31;2.78;;;0.60;;
52940;SDS011;62001;53.366;6.636;2022-09-01T15:19:58;1.50;;;0.60;;
52940;SDS011;62001;53.366;6.636;2022-09-01T15:22:45;5.70;;;0.90;;
52940;SDS011;62001;53.366;6.636;2022-09-01T15:25:11;3.50;;;1.00;;
52940;SDS011;62001;53.366;6.636;2022-09-01T15:27:38;4.00;;;0.80;;
52940;SDS011;62001;53.366;6.636;2022-09-01T15:30:04;1.48;;;0.70;;
52940;SDS011;62001;53.366;6.636;2022-09-01T15:32:37;3.70;;;0.88;;
52940;SDS011;62001;53.366;6.636;2022-09-01T15:35:02;3.53;;;0.77;;
52940;SDS011;62001;53.366;6.636;2022-09-01T15:37:29;1.88;;;0.73;;
52940;SDS011;62001;53.366;6.636;2022-09-01T15:39:55;2.67;;;0.75;;
52940;SDS011;62001;53.366;6.636;2022-09-01T15:42:21;1.20;;;0.65;;
52940;SDS011;62001;53.366;6.636;2022-09-01T15:44:47;2.88;;;0.80;;
52940;SDS011;62001;53.366;6.636;2022-09-01T15:47:12;3.17;;;0.75;;
52940;SDS011;62001;53.366;6.636;2022-09-01T15:49:38;1.27;;;0.88;;
52940;SDS011;62001;53.366;6.636;2022-09-01T15:52:04;1.70;;;0.65;;
52940;SDS011;62001;53.366;6.636;2022-09-01T15:54:30;1.92;;;0.80;;
52940;SDS011;62001;53.366;6.636;2022-09-01T15:56:56;1.05;;;0.60;;
52940;SDS011;62001;53.366;6.636;2022-09-01T15:59:21;1.35;;;0.80;;
52940;SDS011;62001;53.366;6.636;2022-09-01T16:01:47;0.98;;;0.70;;
52940;SDS011;62001;53.366;6.636;2022-09-01T16:04:14;1.92;;;0.77;;
52940;SDS011;62001;53.366;6.636;2022-09-01T16:06:41;3.40;;;0.80;;
52940;SDS011;62001;53.366;6.636;2022-09-01T16:09:07;2.15;;;0.60;;
52940;SDS011;62001;53.366;6.636;2022-09-01T16:11:33;1.02;;;0.50;;
52940;SDS011;62001;53.366;6.636;2022-09-01T16:14:00;3.00;;;0.60;;
52940;SDS011;62001;53.366;6.636;2022-09-01T16:25:03;2.45;;;0.60;;
52940;SDS011;62001;53.366;6.636;2022-09-01T16:27:48;4.03;;;0.70;;
52940;SDS011;62001;53.366;6.636;2022-09-01T16:30:24;1.70;;;0.75;;
52940;SDS011;62001;53.366;6.636;2022-09-01T16:32:52;0.88;;;0.55;;
52940;SDS011;62001;53.366;6.636;2022-09-01T16:35:21;2.33;;;0.73;;
52940;SDS011;62001;53.366;6.636;2022-09-01T16:38:43;1.25;;;0.50;;
52940;SDS011;62001;53.366;6.636;2022-09-01T16:41:06;1.25;;;0.60;;
52940;SDS011;62001;53.366;6.636;2022-09-01T16:43:46;2.72;;;0.70;;
52940;SDS011;62001;53.366;6.636;2022-09-01T16:46:39;1.73;;;0.50;;
52940;SDS011;62001;53.366;6.636;2022-09-01T17:00:00;2.17;;;0.70;;